KCGF

Cuyahoga County Airport

Cleveland, Ohio, USA
METAR KCGF 151545Z 07008KT 7SM SCT100 OVC200 06/02 A3010
Observed Flight Rules
Dec-15 @ 15:45 UTC (28 minutes ago) Visual Flight Rules
Wind Visibility Clouds
70° at 8 knots 7 miles
  • Scattered at 10,000' AGL
  • Overcast at 20,000' AGL
Temperatures Readings
Current 6°C / 43°F
Dewpoint 2°C / 36°F
Humidity 76%
Altimeter 30.1" Hg
Pressure 1019 hPa
Elevation 268
METAR KCGF 151545Z 07008KT 7SM SCT100 OVC200 06/02 A3010
Observed Flight Rules
Dec-15 @ 15:45 UTC
(28 minutes ago)
VFR
Wind Visibility
70° at 8 knots 7 miles
Clouds
  • Scattered at 10,000' AGL
  • Overcast at 20,000' AGL
Temperature Dewpoint
6°C / 43°F 2°C / 36°F
Humidity Altimeter Pressure
76% 30.1" Hg 1019 hPa